sensor_id;sensor_type;location;lat;lon;timestamp;pressure;altitude;pressure_sealevel;temperature;humidity
61761;BME280;47664;51.660;-0.100;2023-11-21T00:02:23;100700.03;;;10.17;69.89
61761;BME280;47664;51.660;-0.100;2023-11-21T00:04:51;100696.35;;;10.11;69.55
61761;BME280;47664;51.660;-0.100;2023-11-21T00:07:18;100695.45;;;9.76;70.60
61761;BME280;47664;51.660;-0.100;2023-11-21T00:09:44;100702.99;;;10.12;69.88
61761;BME280;47664;51.660;-0.100;2023-11-21T00:12:12;100703.83;;;9.96;70.05
61761;BME280;47664;51.660;-0.100;2023-11-21T00:14:39;100710.35;;;9.57;71.83
61761;BME280;47664;51.660;-0.100;2023-11-21T00:17:06;100714.21;;;9.75;70.52
61761;BME280;47664;51.660;-0.100;2023-11-21T00:19:33;100719.19;;;9.81;70.62
61761;BME280;47664;51.660;-0.100;2023-11-21T00:22:00;100720.55;;;9.78;70.51
61761;BME280;47664;51.660;-0.100;2023-11-21T00:24:26;100722.36;;;10.04;70.18
61761;BME280;47664;51.660;-0.100;2023-11-21T00:26:53;100723.17;;;9.57;70.58
61761;BME280;47664;51.660;-0.100;2023-11-21T00:29:20;100728.09;;;9.72;70.16
61761;BME280;47664;51.660;-0.100;2023-11-21T00:31:48;100728.90;;;9.60;70.40
61761;BME280;47664;51.660;-0.100;2023-11-21T00:34:15;100731.39;;;9.72;70.47
61761;BME280;47664;51.660;-0.100;2023-11-21T00:36:42;100733.36;;;9.97;69.81
61761;BME280;47664;51.660;-0.100;2023-11-21T00:39:10;100740.65;;;9.65;70.12
61761;BME280;47664;51.660;-0.100;2023-11-21T00:41:36;100746.61;;;10.31;69.20
61761;BME280;47664;51.660;-0.100;2023-11-21T00:44:04;100750.73;;;10.10;69.38
61761;BME280;47664;51.660;-0.100;2023-11-21T00:46:31;100752.55;;;9.88;70.62
61761;BME280;47664;51.660;-0.100;2023-11-21T00:48:58;100755.70;;;10.07;70.65
61761;BME280;47664;51.660;-0.100;2023-11-21T00:51:25;100757.41;;;9.97;71.65
61761;BME280;47664;51.660;-0.100;2023-11-21T00:53:52;100762.09;;;9.60;71.40
61761;BME280;47664;51.660;-0.100;2023-11-21T00:56:19;100761.97;;;9.88;71.84
61761;BME280;47664;51.660;-0.100;2023-11-21T00:58:46;100764.22;;;9.87;71.86
61761;BME280;47664;51.660;-0.100;2023-11-21T01:01:13;100767.34;;;9.72;71.70
61761;BME280;47664;51.660;-0.100;2023-11-21T01:03:40;100771.58;;;9.71;72.02
61761;BME280;47664;51.660;-0.100;2023-11-21T01:06:07;100774.21;;;9.65;71.76
61761;BME280;47664;51.660;-0.100;2023-11-21T01:08:34;100776.05;;;9.91;71.04
61761;BME280;47664;51.660;-0.100;2023-11-21T01:11:01;100776.27;;;10.41;69.39
61761;BME280;47664;51.660;-0.100;2023-11-21T01:13:28;100776.38;;;10.70;68.59
61761;BME280;47664;51.660;-0.100;2023-11-21T01:15:55;100778.14;;;10.58;67.76
61761;BME280;47664;51.660;-0.100;2023-11-21T01:18:23;100777.31;;;10.73;67.52
61761;BME280;47664;51.660;-0.100;2023-11-21T01:20:49;100776.52;;;10.86;67.13
61761;BME280;47664;51.660;-0.100;2023-11-21T01:23:16;100780.38;;;11.13;66.46
61761;BME280;47664;51.660;-0.100;2023-11-21T01:25:43;100785.47;;;10.81;66.41
61761;BME280;47664;51.660;-0.100;2023-11-21T01:28:10;100795.29;;;10.51;66.85
61761;BME280;47664;51.660;-0.100;2023-11-21T01:30:37;100796.13;;;10.53;67.56
61761;BME280;47664;51.660;-0.100;2023-11-21T01:33:05;100798.52;;;10.58;67.58
61761;BME280;47664;51.660;-0.100;2023-11-21T01:35:32;100806.02;;;9.87;69.27
61761;BME280;47664;51.660;-0.100;2023-11-21T01:37:59;100804.82;;;10.25;69.74
61761;BME280;47664;51.660;-0.100;2023-11-21T01:40:26;100808.50;;;10.50;68.78
61761;BME280;47664;51.660;-0.100;2023-11-21T01:42:53;100814.14;;;10.59;68.99
61761;BME280;47664;51.660;-0.100;2023-11-21T01:45:20;100820.18;;;10.04;69.79
61761;BME280;47664;51.660;-0.100;2023-11-21T01:47:47;100819.45;;;10.47;69.03
61761;BME280;47664;51.660;-0.100;2023-11-21T01:50:16;100820.18;;;10.71;68.66
61761;BME280;47664;51.660;-0.100;2023-11-21T01:52:45;100820.76;;;10.65;68.66
61761;BME280;47664;51.660;-0.100;2023-11-21T01:55:15;100826.21;;;10.57;69.07
61761;BME280;47664;51.660;-0.100;2023-11-21T01:57:43;100831.40;;;10.48;69.27
61761;BME280;47664;51.660;-0.100;2023-11-21T02:00:12;100839.34;;;10.33;69.70
61761;BME280;47664;51.660;-0.100;2023-11-21T02:02:39;100838.89;;;10.05;70.62
61761;BME280;47664;51.660;-0.100;2023-11-21T02:05:06;100842.89;;;10.09;70.73
61761;BME280;47664;51.660;-0.100;2023-11-21T02:07:33;100847.21;;;10.35;69.87
61761;BME280;47664;51.660;-0.100;2023-11-21T02:10:00;100847.83;;;10.35;69.74
61761;BME280;47664;51.660;-0.100;2023-11-21T02:12:28;100850.26;;;10.46;69.38
61761;BME280;47664;51.660;-0.100;2023-11-21T02:14:55;100850.71;;;10.03;69.90
61761;BME280;47664;51.660;-0.100;2023-11-21T02:17:22;100855.54;;;10.01;70.27
61761;BME280;47664;51.660;-0.100;2023-11-21T02:19:48;100859.00;;;10.01;70.65
61761;BME280;47664;51.660;-0.100;2023-11-21T02:22:15;100863.19;;;10.07;70.68
61761;BME280;47664;51.660;-0.100;2023-11-21T02:24:42;100862.42;;;10.16;70.77
61761;BME280;47664;51.660;-0.100;2023-11-21T02:27:10;100867.62;;;9.95;71.11
61761;BME280;47664;51.660;-0.100;2023-11-21T02:29:38;100868.94;;;10.01;70.81
61761;BME280;47664;51.660;-0.100;2023-11-21T02:32:05;100874.59;;;9.45;71.35
61761;BME280;47664;51.660;-0.100;2023-11-21T02:34:32;100881.75;;;9.79;71.55
61761;BME280;47664;51.660;-0.100;2023-11-21T02:36:59;100881.83;;;9.49;71.84
61761;BME280;47664;51.660;-0.100;2023-11-21T02:39:26;100883.94;;;10.04;71.22
61761;BME280;47664;51.660;-0.100;2023-11-21T02:41:53;100883.90;;;9.75;70.87
61761;BME280;47664;51.660;-0.100;2023-11-21T02:44:20;100890.64;;;9.78;70.52
61761;BME280;47664;51.660;-0.100;2023-11-21T02:46:48;100891.93;;;10.07;70.38
61761;BME280;47664;51.660;-0.100;2023-11-21T02:49:15;100884.98;;;9.90;70.28
61761;BME280;47664;51.660;-0.100;2023-11-21T02:51:42;100894.99;;;9.94;70.74
61761;BME280;47664;51.660;-0.100;2023-11-21T02:54:09;100899.38;;;9.85;71.07
61761;BME280;47664;51.660;-0.100;2023-11-21T02:56:36;100905.82;;;9.99;70.94
61761;BME280;47664;51.660;-0.100;2023-11-21T02:59:03;100905.49;;;9.97;70.79
61761;BME280;47664;51.660;-0.100;2023-11-21T03:01:30;100906.85;;;9.68;70.63
61761;BME280;47664;51.660;-0.100;2023-11-21T03:03:56;100908.55;;;9.81;70.63
61761;BME280;47664;51.660;-0.100;2023-11-21T03:06:23;100917.16;;;8.99;72.60
61761;BME280;47664;51.660;-0.100;2023-11-21T03:08:50;100922.14;;;8.95;73.36
61761;BME280;47664;51.660;-0.100;2023-11-21T03:11:17;100923.17;;;9.75;72.51
61761;BME280;47664;51.660;-0.100;2023-11-21T03:13:44;100921.76;;;9.59;71.47
61761;BME280;47664;51.660;-0.100;2023-11-21T03:16:12;100925.89;;;9.56;71.13
61761;BME280;47664;51.660;-0.100;2023-11-21T03:18:39;100927.72;;;9.81;70.53
61761;BME280;47664;51.660;-0.100;2023-11-21T03:21:07;100935.02;;;9.59;71.29
61761;BME280;47664;51.660;-0.100;2023-11-21T03:23:34;100937.27;;;9.55;71.81
61761;BME280;47664;51.660;-0.100;2023-11-21T03:26:01;100938.05;;;10.10;70.31
61761;BME280;47664;51.660;-0.100;2023-11-21T03:28:28;100940.79;;;9.70;69.86
61761;BME280;47664;51.660;-0.100;2023-11-21T03:30:56;100940.75;;;9.74;70.49
61761;BME280;47664;51.660;-0.100;2023-11-21T03:33:23;100945.88;;;9.65;70.24
61761;BME280;47664;51.660;-0.100;2023-11-21T03:35:50;100948.33;;;9.32;69.45
61761;BME280;47664;51.660;-0.100;2023-11-21T03:38:17;100953.38;;;9.65;69.46
61761;BME280;47664;51.660;-0.100;2023-11-21T03:40:44;100955.14;;;9.45;70.33
61761;BME280;47664;51.660;-0.100;2023-11-21T03:43:11;100958.53;;;8.92;71.20
61761;BME280;47664;51.660;-0.100;2023-11-21T03:45:38;100963.36;;;9.31;70.82
61761;BME280;47664;51.660;-0.100;2023-11-21T03:48:05;100965.49;;;9.02;71.20
61761;BME280;47664;51.660;-0.100;2023-11-21T03:50:31;100963.91;;;9.55;70.53
61761;BME280;47664;51.660;-0.100;2023-11-21T03:52:58;100969.08;;;8.90;70.38
61761;BME280;47664;51.660;-0.100;2023-11-21T03:55:25;100972.52;;;9.16;71.22
61761;BME280;47664;51.660;-0.100;2023-11-21T03:57:52;100976.84;;;9.16;71.61
61761;BME280;47664;51.660;-0.100;2023-11-21T04:00:19;100984.43;;;8.88;71.08
61761;BME280;47664;51.660;-0.100;2023-11-21T04:02:47;100984.25;;;9.02;71.88
61761;BME280;47664;51.660;-0.100;2023-11-21T04:05:15;100987.34;;;9.28;71.69
61761;BME280;47664;51.660;-0.100;2023-11-21T04:07:42;100988.01;;;9.43;70.63
61761;BME280;47664;51.660;-0.100;2023-11-21T04:10:09;100994.01;;;9.28;70.12
61761;BME280;47664;51.660;-0.100;2023-11-21T04:12:36;100998.09;;;9.29;71.39
61761;BME280;47664;51.660;-0.100;2023-11-21T04:15:04;101000.47;;;9.08;72.43
61761;BME280;47664;51.660;-0.100;2023-11-21T04:17:31;101006.08;;;9.47;71.71
61761;BME280;47664;51.660;-0.100;2023-11-21T04:19:58;101008.03;;;9.08;72.53
61761;BME280;47664;51.660;-0.100;2023-11-21T04:22:25;101014.54;;;9.23;70.94
61761;BME280;47664;51.660;-0.100;2023-11-21T04:24:52;101017.37;;;9.08;71.51
61761;BME280;47664;51.660;-0.100;2023-11-21T04:27:19;101019.12;;;8.87;72.35
61761;BME280;47664;51.660;-0.100;2023-11-21T04:29:51;101029.40;;;8.70;73.19
61761;BME280;47664;51.660;-0.100;2023-11-21T04:32:18;101024.48;;;8.75;72.85
61761;BME280;47664;51.660;-0.100;2023-11-21T04:34:45;101028.98;;;9.23;72.69
61761;BME280;47664;51.660;-0.100;2023-11-21T04:37:12;101035.26;;;9.46;72.16
61761;BME280;47664;51.660;-0.100;2023-11-21T04:39:39;101040.06;;;9.35;71.18
61761;BME280;47664;51.660;-0.100;2023-11-21T04:42:06;101042.29;;;8.94;71.65
61761;BME280;47664;51.660;-0.100;2023-11-21T04:44:32;101047.51;;;9.31;71.84
61761;BME280;47664;51.660;-0.100;2023-11-21T04:46:59;101054.89;;;8.72;73.07
61761;BME280;47664;51.660;-0.100;2023-11-21T04:49:26;101055.17;;;8.60;74.17
61761;BME280;47664;51.660;-0.100;2023-11-21T04:51:53;101066.08;;;8.54;72.99
61761;BME280;47664;51.660;-0.100;2023-11-21T04:54:20;101064.91;;;9.15;71.91
61761;BME280;47664;51.660;-0.100;2023-11-21T04:56:48;101072.87;;;9.00;71.33
61761;BME280;47664;51.660;-0.100;2023-11-21T04:59:15;101075.22;;;8.86;72.05
61761;BME280;47664;51.660;-0.100;2023-11-21T05:01:42;101079.73;;;9.11;71.59
61761;BME280;47664;51.660;-0.100;2023-11-21T05:04:09;101082.53;;;9.34;70.99
61761;BME280;47664;51.660;-0.100;2023-11-21T05:06:36;101077.62;;;8.98;71.97
61761;BME280;47664;51.660;-0.100;2023-11-21T05:09:03;101081.53;;;9.06;71.76
61761;BME280;47664;51.660;-0.100;2023-11-21T05:11:30;101081.59;;;9.13;71.51
61761;BME280;47664;51.660;-0.100;2023-11-21T05:13:57;101080.10;;;8.65;71.84
61761;BME280;47664;51.660;-0.100;2023-11-21T05:16:26;101082.04;;;8.94;71.41
61761;BME280;47664;51.660;-0.100;2023-11-21T05:18:53;101082.18;;;8.51;72.01
61761;BME280;47664;51.660;-0.100;2023-11-21T05:21:20;101084.99;;;8.90;70.73
61761;BME280;47664;51.660;-0.100;2023-11-21T05:23:47;101086.24;;;8.62;70.78
61761;BME280;47664;51.660;-0.100;2023-11-21T05:26:13;101087.21;;;8.89;69.29
61761;BME280;47664;51.660;-0.100;2023-11-21T05:28:40;101087.27;;;8.72;69.26
61761;BME280;47664;51.660;-0.100;2023-11-21T05:31:07;101091.03;;;9.11;68.86
61761;BME280;47664;51.660;-0.100;2023-11-21T05:33:34;101092.28;;;8.97;69.38
61761;BME280;47664;51.660;-0.100;2023-11-21T05:36:01;101099.89;;;8.92;69.22
61761;BME280;47664;51.660;-0.100;2023-11-21T05:38:28;101106.36;;;9.12;69.15
61761;BME280;47664;51.660;-0.100;2023-11-21T05:40:55;101107.91;;;8.87;67.96
61761;BME280;47664;51.660;-0.100;2023-11-21T05:43:22;101113.42;;;8.69;69.01
61761;BME280;47664;51.660;-0.100;2023-11-21T05:45:49;101122.49;;;8.52;69.29
61761;BME280;47664;51.660;-0.100;2023-11-21T05:48:16;101125.62;;;9.10;68.60
61761;BME280;47664;51.660;-0.100;2023-11-21T05:50:43;101131.05;;;8.81;68.06
61761;BME280;47664;51.660;-0.100;2023-11-21T05:53:10;101137.81;;;9.27;67.33
61761;BME280;47664;51.660;-0.100;2023-11-21T05:55:37;101150.28;;;8.72;68.42
61761;BME280;47664;51.660;-0.100;2023-11-21T05:58:04;101159.68;;;8.22;70.11
61761;BME280;47664;51.660;-0.100;2023-11-21T06:00:30;101155.47;;;8.34;70.27
61761;BME280;47664;51.660;-0.100;2023-11-21T06:02:57;101157.18;;;8.59;69.20
61761;BME280;47664;51.660;-0.100;2023-11-21T06:05:25;101157.90;;;8.71;68.57
61761;BME280;47664;51.660;-0.100;2023-11-21T06:07:54;101161.42;;;8.61;68.70
61761;BME280;47664;51.660;-0.100;2023-11-21T06:10:21;101165.15;;;8.61;68.58
61761;BME280;47664;51.660;-0.100;2023-11-21T06:12:49;101173.10;;;8.86;68.18
61761;BME280;47664;51.660;-0.100;2023-11-21T06:15:16;101174.80;;;8.40;68.63
61761;BME280;47664;51.660;-0.100;2023-11-21T06:17:43;101175.04;;;8.81;69.26
61761;BME280;47664;51.660;-0.100;2023-11-21T06:20:11;101177.20;;;8.51;69.60
61761;BME280;47664;51.660;-0.100;2023-11-21T06:22:39;101177.94;;;8.10;69.94
61761;BME280;47664;51.660;-0.100;2023-11-21T06:25:07;101181.60;;;7.98;70.27
61761;BME280;47664;51.660;-0.100;2023-11-21T06:27:34;101191.37;;;8.39;70.18
61761;BME280;47664;51.660;-0.100;2023-11-21T06:30:03;101184.79;;;8.23;70.29
61761;BME280;47664;51.660;-0.100;2023-11-21T06:32:31;101186.17;;;8.44;70.38
61761;BME280;47664;51.660;-0.100;2023-11-21T06:34:58;101188.91;;;8.32;70.58
61761;BME280;47664;51.660;-0.100;2023-11-21T06:37:26;101193.96;;;8.28;70.94
61761;BME280;47664;51.660;-0.100;2023-11-21T06:39:53;101196.75;;;8.30;70.51
61761;BME280;47664;51.660;-0.100;2023-11-21T06:42:20;101198.38;;;8.22;70.93
61761;BME280;47664;51.660;-0.100;2023-11-21T06:44:48;101205.22;;;8.48;70.03
61761;BME280;47664;51.660;-0.100;2023-11-21T06:47:15;101210.27;;;7.98;71.63
61761;BME280;47664;51.660;-0.100;2023-11-21T06:49:47;101205.33;;;8.09;71.62
61761;BME280;47664;51.660;-0.100;2023-11-21T06:52:15;101212.89;;;7.62;72.30
61761;BME280;47664;51.660;-0.100;2023-11-21T06:54:42;101218.19;;;7.83;72.87
61761;BME280;47664;51.660;-0.100;2023-11-21T06:57:09;101226.69;;;7.49;73.32
61761;BME280;47664;51.660;-0.100;2023-11-21T06:59:37;101228.40;;;7.86;72.34
61761;BME280;47664;51.660;-0.100;2023-11-21T07:02:04;101232.29;;;7.72;71.97
61761;BME280;47664;51.660;-0.100;2023-11-21T07:04:31;101229.76;;;8.12;71.58
61761;BME280;47664;51.660;-0.100;2023-11-21T07:06:58;101238.66;;;8.33;70.68
61761;BME280;47664;51.660;-0.100;2023-11-21T07:09:25;101243.61;;;7.58;72.44
61761;BME280;47664;51.660;-0.100;2023-11-21T07:11:52;101246.48;;;7.45;72.44
61761;BME280;47664;51.660;-0.100;2023-11-21T07:14:18;101254.80;;;7.50;72.32
61761;BME280;47664;51.660;-0.100;2023-11-21T07:16:46;101257.48;;;8.08;71.56
61761;BME280;47664;51.660;-0.100;2023-11-21T07:19:14;101259.84;;;7.47;71.13
61761;BME280;47664;51.660;-0.100;2023-11-21T07:21:41;101267.54;;;7.65;71.21
61761;BME280;47664;51.660;-0.100;2023-11-21T07:24:08;101272.95;;;7.82;71.20
61761;BME280;47664;51.660;-0.100;2023-11-21T07:26:35;101278.66;;;7.82;71.48
61761;BME280;47664;51.660;-0.100;2023-11-21T07:29:03;101278.60;;;8.29;69.70
61761;BME280;47664;51.660;-0.100;2023-11-21T07:31:30;101280.78;;;8.30;69.14
61761;BME280;47664;51.660;-0.100;2023-11-21T07:33:58;101285.59;;;8.03;70.21
61761;BME280;47664;51.660;-0.100;2023-11-21T07:36:25;101295.16;;;8.04;71.05
61761;BME280;47664;51.660;-0.100;2023-11-21T07:38:53;101295.35;;;8.05;70.06
61761;BME280;47664;51.660;-0.100;2023-11-21T07:41:20;101300.60;;;7.95;69.93
61761;BME280;47664;51.660;-0.100;2023-11-21T07:43:48;101302.68;;;8.22;69.91
61761;BME280;47664;51.660;-0.100;2023-11-21T07:46:15;101310.50;;;7.98;70.24
61761;BME280;47664;51.660;-0.100;2023-11-21T07:48:43;101318.88;;;7.99;70.40
61761;BME280;47664;51.660;-0.100;2023-11-21T07:51:10;101319.86;;;7.43;72.56
61761;BME280;47664;51.660;-0.100;2023-11-21T07:53:37;101326.67;;;7.56;73.15
61761;BME280;47664;51.660;-0.100;2023-11-21T07:56:06;101332.43;;;7.80;72.14
61761;BME280;47664;51.660;-0.100;2023-11-21T07:58:39;101338.56;;;8.04;71.94
61761;BME280;47664;51.660;-0.100;2023-11-21T08:01:06;101343.06;;;7.77;72.22
61761;BME280;47664;51.660;-0.100;2023-11-21T08:03:33;101343.09;;;8.09;72.07
61761;BME280;47664;51.660;-0.100;2023-11-21T08:06:00;101350.26;;;7.32;73.24
61761;BME280;47664;51.660;-0.100;2023-11-21T08:08:27;101349.25;;;7.38;73.93
61761;BME280;47664;51.660;-0.100;2023-11-21T08:10:54;101356.37;;;7.73;73.51
61761;BME280;47664;51.660;-0.100;2023-11-21T08:13:21;101356.98;;;7.86;73.32
61761;BME280;47664;51.660;-0.100;2023-11-21T08:15:49;101356.85;;;7.76;72.86
61761;BME280;47664;51.660;-0.100;2023-11-21T08:18:17;101363.90;;;7.42;73.81
61761;BME280;47664;51.660;-0.100;2023-11-21T08:20:44;101367.81;;;7.74;73.84
61761;BME280;47664;51.660;-0.100;2023-11-21T08:23:11;101372.31;;;7.73;74.90
61761;BME280;47664;51.660;-0.100;2023-11-21T08:25:38;101375.29;;;7.80;73.22
61761;BME280;47664;51.660;-0.100;2023-11-21T08:28:05;101377.28;;;7.94;72.69
61761;BME280;47664;51.660;-0.100;2023-11-21T08:30:32;101381.92;;;7.74;72.73
61761;BME280;47664;51.660;-0.100;2023-11-21T08:32:59;101389.72;;;7.90;73.36
61761;BME280;47664;51.660;-0.100;2023-11-21T08:35:26;101394.40;;;7.52;75.06
61761;BME280;47664;51.660;-0.100;2023-11-21T08:37:53;101400.62;;;7.61;74.13
61761;BME280;47664;51.660;-0.100;2023-11-21T08:40:20;101409.46;;;7.71;73.65
61761;BME280;47664;51.660;-0.100;2023-11-21T08:42:47;101406.52;;;7.45;74.27
61761;BME280;47664;51.660;-0.100;2023-11-21T08:45:15;101413.90;;;7.78;74.15
61761;BME280;47664;51.660;-0.100;2023-11-21T08:47:41;101411.58;;;8.12;72.72
61761;BME280;47664;51.660;-0.100;2023-11-21T08:50:09;101414.15;;;8.01;73.17
61761;BME280;47664;51.660;-0.100;2023-11-21T08:52:36;101415.85;;;8.09;73.35
61761;BME280;47664;51.660;-0.100;2023-11-21T08:55:04;101418.58;;;7.88;72.64
61761;BME280;47664;51.660;-0.100;2023-11-21T08:57:32;101419.35;;;8.17;72.10
61761;BME280;47664;51.660;-0.100;2023-11-21T08:59:59;101417.02;;;7.58;74.14
61761;BME280;47664;51.660;-0.100;2023-11-21T09:02:26;101419.79;;;8.25;73.14
61761;BME280;47664;51.660;-0.100;2023-11-21T09:04:53;101423.26;;;7.91;73.37
61761;BME280;47664;51.660;-0.100;2023-11-21T09:07:20;101419.74;;;7.63;75.17
61761;BME280;47664;51.660;-0.100;2023-11-21T09:09:48;101424.88;;;7.58;74.79
61761;BME280;47664;51.660;-0.100;2023-11-21T09:12:15;101434.09;;;7.79;74.01
61761;BME280;47664;51.660;-0.100;2023-11-21T09:14:42;101438.51;;;8.03;74.00
61761;BME280;47664;51.660;-0.100;2023-11-21T09:17:10;101437.97;;;8.12;73.04
61761;BME280;47664;51.660;-0.100;2023-11-21T09:19:37;101437.26;;;8.48;72.52
61761;BME280;47664;51.660;-0.100;2023-11-21T09:22:04;101442.58;;;8.61;70.99
61761;BME280;47664;51.660;-0.100;2023-11-21T09:24:31;101441.51;;;8.31;72.30
61761;BME280;47664;51.660;-0.100;2023-11-21T09:26:58;101440.55;;;8.85;70.71
61761;BME280;47664;51.660;-0.100;2023-11-21T09:29:24;101451.91;;;8.94;70.56
61761;BME280;47664;51.660;-0.100;2023-11-21T09:31:51;101457.30;;;8.80;71.03
61761;BME280;47664;51.660;-0.100;2023-11-21T09:34:18;101458.12;;;9.06;69.90
61761;BME280;47664;51.660;-0.100;2023-11-21T09:36:46;101462.44;;;9.15;69.98
61761;BME280;47664;51.660;-0.100;2023-11-21T09:39:13;101468.26;;;9.27;70.20
61761;BME280;47664;51.660;-0.100;2023-11-21T09:41:43;101469.27;;;8.55;71.11
61761;BME280;47664;51.660;-0.100;2023-11-21T09:44:13;101470.45;;;8.43;71.91
61761;BME280;47664;51.660;-0.100;2023-11-21T09:46:42;101475.81;;;8.82;71.82
61761;BME280;47664;51.660;-0.100;2023-11-21T09:49:09;101480.50;;;9.03;71.69
61761;BME280;47664;51.660;-0.100;2023-11-21T09:51:38;101475.30;;;9.07;71.39
61761;BME280;47664;51.660;-0.100;2023-11-21T09:54:06;101481.94;;;8.67;71.62
61761;BME280;47664;51.660;-0.100;2023-11-21T09:56:34;101486.73;;;8.74;72.17
61761;BME280;47664;51.660;-0.100;2023-11-21T09:59:02;101483.09;;;8.64;72.31
61761;BME280;47664;51.660;-0.100;2023-11-21T10:01:31;101487.67;;;8.84;72.48
61761;BME280;47664;51.660;-0.100;2023-11-21T10:04:01;101493.21;;;8.98;72.57
61761;BME280;47664;51.660;-0.100;2023-11-21T10:06:29;101493.05;;;9.06;72.49
61761;BME280;47664;51.660;-0.100;2023-11-21T10:08:59;101495.75;;;9.15;71.34
61761;BME280;47664;51.660;-0.100;2023-11-21T10:11:31;101494.34;;;9.16;70.77
61761;BME280;47664;51.660;-0.100;2023-11-21T10:14:01;101498.31;;;9.04;71.60
61761;BME280;47664;51.660;-0.100;2023-11-21T10:16:35;101499.06;;;9.27;71.67
61761;BME280;47664;51.660;-0.100;2023-11-21T10:19:06;101497.24;;;9.57;70.89
61761;BME280;47664;51.660;-0.100;2023-11-21T10:21:39;101500.84;;;9.49;71.49
61761;BME280;47664;51.660;-0.100;2023-11-21T10:24:08;101496.09;;;9.41;71.21
61761;BME280;47664;51.660;-0.100;2023-11-21T10:26:40;101499.30;;;9.52;70.56
61761;BME280;47664;51.660;-0.100;2023-11-21T10:29:12;101503.42;;;9.08;71.40
61761;BME280;47664;51.660;-0.100;2023-11-21T10:31:41;101505.63;;;9.28;72.38
61761;BME280;47664;51.660;-0.100;2023-11-21T10:34:13;101508.81;;;9.09;72.60
61761;BME280;47664;51.660;-0.100;2023-11-21T10:36:41;101506.77;;;9.37;71.92
61761;BME280;47664;51.660;-0.100;2023-11-21T10:39:09;101509.11;;;8.82;72.64
61761;BME280;47664;51.660;-0.100;2023-11-21T10:41:37;101511.72;;;9.55;72.51
61761;BME280;47664;51.660;-0.100;2023-11-21T10:44:04;101515.77;;;9.12;71.69
61761;BME280;47664;51.660;-0.100;2023-11-21T10:46:31;101522.43;;;9.18;72.34
61761;BME280;47664;51.660;-0.100;2023-11-21T10:48:59;101525.74;;;8.97;72.70
61761;BME280;47664;51.660;-0.100;2023-11-21T10:51:26;101530.86;;;9.14;72.92
61761;BME280;47664;51.660;-0.100;2023-11-21T10:53:53;101528.63;;;9.06;72.25
61761;BME280;47664;51.660;-0.100;2023-11-21T10:56:23;101525.81;;;9.20;72.26
61761;BME280;47664;51.660;-0.100;2023-11-21T10:58:50;101522.52;;;9.70;70.74
61761;BME280;47664;51.660;-0.100;2023-11-21T11:01:18;101519.46;;;9.92;70.28
61761;BME280;47664;51.660;-0.100;2023-11-21T11:03:47;101523.47;;;9.93;69.47
61761;BME280;47664;51.660;-0.100;2023-11-21T11:06:15;101526.19;;;9.93;69.67
61761;BME280;47664;51.660;-0.100;2023-11-21T11:08:44;101526.92;;;9.81;70.32
61761;BME280;47664;51.660;-0.100;2023-11-21T11:11:11;101523.18;;;10.01;69.71
61761;BME280;47664;51.660;-0.100;2023-11-21T11:13:39;101520.59;;;10.15;68.95
61761;BME280;47664;51.660;-0.100;2023-11-21T11:16:10;101521.12;;;10.34;68.81
61761;BME280;47664;51.660;-0.100;2023-11-21T11:18:37;101526.66;;;10.12;68.64
61761;BME280;47664;51.660;-0.100;2023-11-21T11:21:13;101529.72;;;9.98;69.31
61761;BME280;47664;51.660;-0.100;2023-11-21T11:23:55;101526.23;;;10.38;68.70
61761;BME280;47664;51.660;-0.100;2023-11-21T11:26:36;101530.71;;;10.55;68.44
61761;BME280;47664;51.660;-0.100;2023-11-21T11:29:13;101534.34;;;10.41;68.35
61761;BME280;47664;51.660;-0.100;2023-11-21T11:31:54;101537.80;;;9.79;69.76
61761;BME280;47664;51.660;-0.100;2023-11-21T11:34:28;101534.27;;;9.65;70.74
61761;BME280;47664;51.660;-0.100;2023-11-21T11:37:02;101538.16;;;10.21;69.38
61761;BME280;47664;51.660;-0.100;2023-11-21T11:39:30;101537.96;;;10.29;68.84
61761;BME280;47664;51.660;-0.100;2023-11-21T11:41:58;101540.64;;;10.56;68.47
61761;BME280;47664;51.660;-0.100;2023-11-21T11:44:56;101542.59;;;10.55;67.89
61761;BME280;47664;51.660;-0.100;2023-11-21T11:47:25;101552.23;;;10.42;67.73
61761;BME280;47664;51.660;-0.100;2023-11-21T11:50:03;101551.74;;;9.90;68.32
61761;BME280;47664;51.660;-0.100;2023-11-21T11:52:33;101552.08;;;10.50;68.08
61761;BME280;47664;51.660;-0.100;2023-11-21T11:55:00;101554.33;;;10.63;67.50
61761;BME280;47664;51.660;-0.100;2023-11-21T11:57:30;101558.94;;;10.72;67.93
61761;BME280;47664;51.660;-0.100;2023-11-21T12:00:15;101554.95;;;10.32;68.58
61761;BME280;47664;51.660;-0.100;2023-11-21T12:02:42;101550.74;;;10.51;68.08
61761;BME280;47664;51.660;-0.100;2023-11-21T12:05:12;101556.25;;;10.55;67.56
61761;BME280;47664;51.660;-0.100;2023-11-21T12:07:49;101558.27;;;10.55;67.72
61761;BME280;47664;51.660;-0.100;2023-11-21T12:10:17;101558.41;;;10.70;67.82
61761;BME280;47664;51.660;-0.100;2023-11-21T12:12:47;101563.37;;;10.70;68.11
61761;BME280;47664;51.660;-0.100;2023-11-21T12:15:15;101565.66;;;10.66;68.21
61761;BME280;47664;51.660;-0.100;2023-11-21T12:17:43;101570.90;;;10.89;67.98
61761;BME280;47664;51.660;-0.100;2023-11-21T12:20:11;101578.82;;;10.50;68.70
61761;BME280;47664;51.660;-0.100;2023-11-21T12:22:39;101582.55;;;11.19;67.63
61761;BME280;47664;51.660;-0.100;2023-11-21T12:25:06;101585.29;;;10.97;68.02
61761;BME280;47664;51.660;-0.100;2023-11-21T12:27:33;101589.28;;;10.86;68.55
61761;BME280;47664;51.660;-0.100;2023-11-21T12:30:00;101595.49;;;11.04;68.26
61761;BME280;47664;51.660;-0.100;2023-11-21T12:32:28;101596.67;;;10.75;67.74
61761;BME280;47664;51.660;-0.100;2023-11-21T12:34:55;101604.69;;;11.40;67.59
61761;BME280;47664;51.660;-0.100;2023-11-21T12:37:22;101604.96;;;10.98;67.98
61761;BME280;47664;51.660;-0.100;2023-11-21T12:39:49;101612.21;;;10.72;67.95
61761;BME280;47664;51.660;-0.100;2023-11-21T12:42:16;101618.11;;;9.77;70.40
61761;BME280;47664;51.660;-0.100;2023-11-21T12:44:46;101618.32;;;10.52;70.22
61761;BME280;47664;51.660;-0.100;2023-11-21T12:47:17;101626.06;;;10.04;71.22
61761;BME280;47664;51.660;-0.100;2023-11-21T12:49:44;101630.99;;;10.56;70.30
61761;BME280;47664;51.660;-0.100;2023-11-21T12:52:11;101637.51;;;9.61;71.15